メインページ
METAR-TAF:

METAR-TAF

空港 :

ボンリキ国際空港

タラワ, キリバス

緯度: 01-21N, 経度: 172-55E, 海抜: 2m

現時点の気象観測

当レポートは58分前の14:00(UTC)に作成
の風 9kt
気温 27°C
湿度 84%
気圧 1008 hPa
視程10km以上
高度1900ftの雲はほとんどない

METAR: NGTA 251400Z 09009KT 9999 FEW019 27/24 Q1008

時間: 04:58 (14:58 UTC)

予報

当レポートは3時間35分前の11:23(UTC)に作成
予報は25日の 12時(UTC)から 26日の 12時(UTC)まで有効
の風 7kt
視程10km以上
高度1900ftの雲はほとんどない

TAF: NGTA 251123Z 2512/2612 09007KT 9999 FEW019

4,000以上の空港の気象観測と天気予報(METAR報とTAF報)

利用可能な観測所は地図上に黄色い丸と赤い丸で示す。

丸の上にカーソルを重ねると観測所名を参照できる。

次にクリックすると気象観測と天気予報を参照できる。

マップの切り替え:黒色「×」印の緑ボタンをクリックして拡大、「-」印の緑ボタンをクリックして縮小、緑色の三角印をクリックして隣りの地図に切り替え


METAR-TAF: